createdAt,value
2024-02-02T00:00:19.049Z,6.47
2024-02-02T00:02:49.623Z,6.51
2024-02-02T00:05:18.466Z,6.52
2024-02-02T00:07:47.565Z,6.55
2024-02-02T00:10:17.769Z,6.56
2024-02-02T00:12:46.791Z,6.58
2024-02-02T00:15:16.357Z,6.60
2024-02-02T00:17:45.261Z,6.62
2024-02-02T00:20:17.820Z,6.64
2024-02-02T00:22:46.980Z,6.66
2024-02-02T00:25:15.967Z,6.67
2024-02-02T00:27:44.985Z,6.69
2024-02-02T00:30:16.366Z,6.72
2024-02-02T00:32:46.600Z,6.72
2024-02-02T00:35:21.331Z,6.74
2024-02-02T00:37:49.952Z,6.75
2024-02-02T00:40:20.935Z,6.76
2024-02-02T00:42:49.961Z,6.76
2024-02-02T00:45:19.251Z,6.78
2024-02-02T00:47:48.217Z,6.78
2024-02-02T00:50:21.495Z,6.79
2024-02-02T00:52:51.040Z,6.79
2024-02-02T00:55:19.681Z,6.81
2024-02-02T00:57:49.548Z,6.83
2024-02-02T01:00:19.048Z,6.84
2024-02-02T01:02:48.016Z,6.87
2024-02-02T01:05:19.387Z,6.88
2024-02-02T01:07:48.815Z,6.88
2024-02-02T01:10:19.092Z,6.90
2024-02-02T01:12:48.186Z,6.91
2024-02-02T01:15:19.212Z,6.91
2024-02-02T01:17:49.519Z,6.93
2024-02-02T01:20:19.900Z,6.94
2024-02-02T01:22:48.980Z,6.95
2024-02-02T01:25:17.901Z,6.96
2024-02-02T01:27:47.283Z,6.97
2024-02-02T01:30:17.792Z,6.98
2024-02-02T01:32:47.216Z,6.98
2024-02-02T01:35:16.518Z,6.95
2024-02-02T01:37:47.228Z,6.92
2024-02-02T01:40:16.638Z,6.89
2024-02-02T01:42:46.075Z,6.87
2024-02-02T01:45:15.957Z,6.84
2024-02-02T01:47:45.094Z,6.85
2024-02-02T01:50:15.087Z,6.85
2024-02-02T01:52:45.272Z,6.86
2024-02-02T01:55:14.349Z,6.87
2024-02-02T01:57:43.875Z,6.89
2024-02-02T02:00:15.214Z,6.92
2024-02-02T02:02:44.117Z,6.92
2024-02-02T02:05:12.855Z,6.95
2024-02-02T02:07:45.556Z,6.95
2024-02-02T02:10:16.759Z,6.96
2024-02-02T02:12:45.754Z,6.97
2024-02-02T02:15:14.819Z,6.97
2024-02-02T02:17:43.927Z,6.98
2024-02-02T02:20:16.137Z,6.97
2024-02-02T02:22:46.547Z,6.98
2024-02-02T02:25:16.016Z,6.99
2024-02-02T02:27:45.115Z,7.00
2024-02-02T02:30:16.312Z,7.01
2024-02-02T02:32:48.120Z,6.99
2024-02-02T02:35:18.272Z,6.98
2024-02-02T02:37:48.420Z,7.03
2024-02-02T02:40:18.406Z,7.03
2024-02-02T02:42:48.379Z,7.05
2024-02-02T02:45:19.425Z,7.05
2024-02-02T02:47:48.348Z,7.03
2024-02-02T02:50:17.897Z,7.02
2024-02-02T02:52:48.268Z,7.02
2024-02-02T02:55:17.848Z,7.00
2024-02-02T02:57:46.742Z,6.98
2024-02-02T03:00:18.701Z,6.94
2024-02-02T03:02:47.607Z,6.92
2024-02-02T03:05:17.323Z,6.92
2024-02-02T03:07:47.834Z,6.90
2024-02-02T03:10:20.392Z,6.87
2024-02-02T03:12:49.319Z,6.88
2024-02-02T03:15:18.251Z,6.88
2024-02-02T03:17:47.546Z,6.88
2024-02-02T03:20:17.843Z,6.91
2024-02-02T03:22:48.491Z,6.92
2024-02-02T03:25:17.635Z,6.92
2024-02-02T03:27:46.548Z,6.92
2024-02-02T03:30:16.713Z,6.94
2024-02-02T03:32:46.434Z,6.95
2024-02-02T03:35:17.444Z,6.95
2024-02-02T03:37:47.971Z,6.97
2024-02-02T03:40:17.178Z,6.98
2024-02-02T03:42:46.260Z,6.96
2024-02-02T03:45:15.073Z,6.96
2024-02-02T03:47:43.973Z,6.97
2024-02-02T03:50:12.558Z,6.99
2024-02-02T03:52:41.585Z,7.00
2024-02-02T03:55:12.295Z,7.01
2024-02-02T03:57:41.209Z,7.02
2024-02-02T04:00:12.109Z,7.04
2024-02-02T04:02:40.902Z,7.05
2024-02-02T04:05:10.063Z,7.07
2024-02-02T04:07:38.736Z,7.09
2024-02-02T04:10:08.549Z,7.09
2024-02-02T04:12:40.602Z,7.09
2024-02-02T04:15:10.457Z,7.09
2024-02-02T04:17:39.223Z,7.07
2024-02-02T04:20:09.705Z,7.08
2024-02-02T04:22:38.303Z,7.07
2024-02-02T04:25:07.965Z,7.07
2024-02-02T04:27:39.382Z,7.04
2024-02-02T04:30:10.333Z,7.03
2024-02-02T04:32:39.088Z,7.02
2024-02-02T04:35:08.639Z,7.01
2024-02-02T04:37:37.404Z,7.01
2024-02-02T04:40:07.470Z,7.02
2024-02-02T04:42:38.200Z,7.06
2024-02-02T04:45:07.970Z,7.07
2024-02-02T04:47:36.855Z,7.08
2024-02-02T04:50:06.234Z,7.09
2024-02-02T04:52:34.929Z,7.09
2024-02-02T04:55:03.853Z,7.11
2024-02-02T04:57:32.793Z,7.13
2024-02-02T05:00:03.187Z,7.14
2024-02-02T05:02:32.927Z,7.14
2024-02-02T05:05:02.082Z,7.14
2024-02-02T05:07:31.891Z,7.15
2024-02-02T05:10:00.840Z,7.14
2024-02-02T05:12:30.300Z,7.13
2024-02-02T05:14:59.045Z,7.12
2024-02-02T05:17:30.081Z,7.09
2024-02-02T05:19:59.542Z,7.09
2024-02-02T05:22:28.151Z,7.07
2024-02-02T05:24:56.696Z,7.07
2024-02-02T05:27:25.488Z,7.07
2024-02-02T05:29:54.667Z,7.07
2024-02-02T05:32:24.146Z,7.06
2024-02-02T05:34:54.302Z,7.05
2024-02-02T05:37:22.848Z,7.06
2024-02-02T05:39:51.415Z,7.06
2024-02-02T05:42:21.308Z,7.04
2024-02-02T05:44:49.900Z,7.05
2024-02-02T05:47:18.457Z,7.05
2024-02-02T05:49:47.675Z,7.06
2024-02-02T05:52:18.192Z,7.09
2024-02-02T05:54:47.608Z,7.11
2024-02-02T05:57:17.684Z,7.16
2024-02-02T05:59:50.415Z,7.18
2024-02-02T06:02:19.426Z,7.22
2024-02-02T06:04:48.329Z,7.23
2024-02-02T06:07:18.801Z,7.26
2024-02-02T06:09:47.839Z,7.27
2024-02-02T06:12:17.098Z,7.28
2024-02-02T06:14:46.028Z,7.27
2024-02-02T06:17:14.778Z,7.26
2024-02-02T06:19:44.144Z,7.24
2024-02-02T06:22:12.707Z,7.23
2024-02-02T06:24:42.645Z,7.20
2024-02-02T06:27:11.369Z,7.17
2024-02-02T06:29:39.988Z,7.14
2024-02-02T06:32:09.720Z,7.10
2024-02-02T06:34:39.045Z,7.07
2024-02-02T06:37:07.675Z,7.02
2024-02-02T06:39:36.335Z,6.97
2024-02-02T06:42:07.223Z,6.91
2024-02-02T06:44:37.131Z,6.86
2024-02-02T06:47:06.297Z,6.83
2024-02-02T06:49:34.919Z,6.79
2024-02-02T06:52:03.754Z,6.75
2024-02-02T06:54:32.609Z,6.73
2024-02-02T06:57:01.477Z,6.70
2024-02-02T06:59:31.866Z,6.67
2024-02-02T07:02:03.521Z,6.67
2024-02-02T07:04:32.247Z,6.65
2024-02-02T07:07:01.363Z,6.64
2024-02-02T07:09:34.113Z,6.64
2024-02-02T07:12:05.258Z,6.64
2024-02-02T07:14:48.132Z,6.64
2024-02-02T07:17:37.651Z,6.68
2024-02-02T07:20:12.513Z,6.68
2024-02-02T07:22:42.649Z,6.73
2024-02-02T07:25:15.404Z,6.80
2024-02-02T07:27:56.586Z,6.87
2024-02-02T07:30:57.076Z,6.94
2024-02-02T07:33:36.997Z,7.00
2024-02-02T07:36:07.167Z,7.04
2024-02-02T07:38:56.338Z,7.06
2024-02-02T07:41:27.366Z,7.15
2024-02-02T07:43:57.710Z,7.21
2024-02-02T07:46:28.926Z,7.27
2024-02-02T07:48:58.471Z,7.33
2024-02-02T07:51:28.273Z,7.36
2024-02-02T07:53:57.182Z,7.40
2024-02-02T07:56:27.071Z,7.45
2024-02-02T07:58:59.991Z,7.49
2024-02-02T08:01:32.683Z,7.55
2024-02-02T08:04:02.127Z,7.59
2024-02-02T08:06:31.441Z,7.61
2024-02-02T08:09:00.159Z,7.65
2024-02-02T08:11:36.578Z,7.68
2024-02-02T08:14:05.288Z,7.72
2024-02-02T08:16:35.159Z,7.75
2024-02-02T08:19:04.532Z,7.77
2024-02-02T08:21:33.079Z,7.79
2024-02-02T08:24:02.109Z,7.80
2024-02-02T08:26:30.684Z,7.80
2024-02-02T08:28:59.720Z,7.80
2024-02-02T08:31:28.381Z,7.81
2024-02-02T08:33:58.593Z,7.83
2024-02-02T08:36:27.905Z,7.85
2024-02-02T08:38:56.557Z,7.86
2024-02-02T08:41:25.410Z,7.84
2024-02-02T08:43:54.112Z,7.82
2024-02-02T08:46:24.503Z,7.85
2024-02-02T08:48:56.523Z,7.88
2024-02-02T08:51:51.006Z,7.88
2024-02-02T08:54:38.090Z,7.92
2024-02-02T08:57:38.965Z,7.96
2024-02-02T09:00:17.467Z,8.02
2024-02-02T09:03:19.033Z,8.09
2024-02-02T09:05:56.475Z,8.15
2024-02-02T09:08:35.409Z,8.16
2024-02-02T09:11:21.058Z,8.20
2024-02-02T09:13:51.575Z,8.26
2024-02-02T09:16:21.252Z,8.32
2024-02-02T09:18:57.737Z,8.39
2024-02-02T09:21:35.626Z,8.43
2024-02-02T09:24:07.242Z,8.46
2024-02-02T09:26:40.356Z,8.48
2024-02-02T09:29:12.403Z,8.50
2024-02-02T09:31:42.670Z,8.53
2024-02-02T09:34:19.486Z,8.58
2024-02-02T09:36:50.061Z,8.64
2024-02-02T09:39:53.286Z,8.67
2024-02-02T09:42:55.062Z,8.69
2024-02-02T09:45:51.491Z,8.76
2024-02-02T09:48:41.859Z,8.83
2024-02-02T09:51:21.603Z,8.86
2024-02-02T09:54:05.189Z,8.88
2024-02-02T09:56:52.949Z,8.91
2024-02-02T09:59:31.697Z,8.95
2024-02-02T10:02:25.733Z,8.97
2024-02-02T10:05:05.933Z,9.01
2024-02-02T10:07:46.523Z,9.05
2024-02-02T10:10:49.509Z,9.13
2024-02-02T10:13:38.284Z,9.19
2024-02-02T10:16:26.700Z,9.26
2024-02-02T10:19:35.013Z,9.28
2024-02-02T10:22:31.105Z,9.30
2024-02-02T10:25:19.318Z,9.33
2024-02-02T10:28:12.800Z,9.38
2024-02-02T10:30:57.933Z,9.42
2024-02-02T10:33:45.340Z,9.46
2024-02-02T10:36:31.734Z,9.53
2024-02-02T10:39:18.576Z,9.56
2024-02-02T10:42:09.735Z,9.63
2024-02-02T10:44:53.389Z,9.68
2024-02-02T10:47:47.295Z,9.73
2024-02-02T10:50:23.644Z,9.71
2024-02-02T10:53:06.870Z,9.71
2024-02-02T10:55:49.842Z,9.77
2024-02-02T10:58:46.769Z,9.86
2024-02-02T11:01:28.501Z,9.93
2024-02-02T11:04:08.791Z,9.98
2024-02-02T11:06:46.251Z,9.99
2024-02-02T11:09:26.829Z,10.04
2024-02-02T11:12:11.765Z,10.05
2024-02-02T11:14:44.226Z,10.06
2024-02-02T11:17:23.573Z,10.10
2024-02-02T11:20:18.029Z,10.15
2024-02-02T11:22:55.626Z,10.18
2024-02-02T11:25:32.104Z,10.21
2024-02-02T11:28:06.710Z,10.26
2024-02-02T11:30:49.526Z,10.27
2024-02-02T11:33:55.023Z,10.24
2024-02-02T11:36:46.968Z,10.22
2024-02-02T11:39:27.455Z,10.20
2024-02-02T11:41:57.738Z,10.20
2024-02-02T11:44:29.951Z,10.19
2024-02-02T11:47:01.001Z,10.18
2024-02-02T11:49:41.193Z,10.18
2024-02-02T11:52:20.802Z,10.20
2024-02-02T11:54:57.636Z,10.23
2024-02-02T11:57:30.413Z,10.27
2024-02-02T12:00:01.753Z,10.27
2024-02-02T12:02:59.680Z,10.31
2024-02-02T12:05:36.875Z,10.35
2024-02-02T12:08:15.137Z,10.42
2024-02-02T12:10:44.567Z,10.49
2024-02-02T12:13:23.808Z,10.52
2024-02-02T12:15:54.195Z,10.55
2024-02-02T12:18:23.340Z,10.56
2024-02-02T12:20:52.169Z,10.53
2024-02-02T12:23:22.281Z,10.54
2024-02-02T12:25:51.114Z,10.55
2024-02-02T12:28:21.141Z,10.55
2024-02-02T12:30:50.049Z,10.54
2024-02-02T12:33:23.738Z,10.56
2024-02-02T12:35:53.425Z,10.58
2024-02-02T12:38:25.200Z,10.62
2024-02-02T12:40:53.797Z,10.67
2024-02-02T12:43:26.669Z,10.70
2024-02-02T12:45:55.889Z,10.69
2024-02-02T12:48:24.866Z,10.69
2024-02-02T12:50:53.535Z,10.66
2024-02-02T12:53:23.685Z,10.63
2024-02-02T12:55:52.488Z,10.61
2024-02-02T12:58:21.255Z,10.62
2024-02-02T13:00:50.080Z,10.61
2024-02-02T13:03:19.413Z,10.55
2024-02-02T13:05:48.463Z,10.52
2024-02-02T13:08:31.347Z,10.46
2024-02-02T13:11:01.186Z,10.47
2024-02-02T13:13:30.034Z,10.45
2024-02-02T13:15:59.007Z,10.42
2024-02-02T13:18:30.429Z,10.38
2024-02-02T13:21:00.069Z,10.36
2024-02-02T13:23:31.870Z,10.34
2024-02-02T13:26:07.506Z,10.33
2024-02-02T13:28:39.918Z,10.34
2024-02-02T13:31:17.100Z,10.33
2024-02-02T13:33:56.980Z,10.29
2024-02-02T13:36:31.465Z,10.28
2024-02-02T13:39:05.445Z,10.22
2024-02-02T13:41:35.249Z,10.17
2024-02-02T13:44:07.618Z,10.14
2024-02-02T13:46:47.650Z,10.07
2024-02-02T13:49:24.203Z,10.01
2024-02-02T13:51:54.128Z,9.97
2024-02-02T13:54:24.609Z,9.95
2024-02-02T13:56:53.579Z,9.94
2024-02-02T13:59:23.278Z,9.93
2024-02-02T14:01:53.761Z,9.92
2024-02-02T14:04:28.644Z,9.90
2024-02-02T14:06:57.589Z,9.86
2024-02-02T14:09:27.894Z,9.79
2024-02-02T14:12:04.368Z,9.76
2024-02-02T14:14:33.145Z,9.74
2024-02-02T14:17:05.672Z,9.70
2024-02-02T14:19:35.183Z,9.64
2024-02-02T14:22:08.324Z,9.59
2024-02-02T14:24:48.349Z,9.54
2024-02-02T14:27:17.624Z,9.52
2024-02-02T14:29:47.582Z,9.51
2024-02-02T14:32:21.240Z,9.50
2024-02-02T14:34:50.060Z,9.49
2024-02-02T14:37:18.953Z,9.46
2024-02-02T14:39:49.509Z,9.44
2024-02-02T14:42:18.410Z,9.43
2024-02-02T14:44:47.575Z,9.44
2024-02-02T14:47:20.173Z,9.44
2024-02-02T14:49:49.914Z,9.46
2024-02-02T14:52:18.975Z,9.46
2024-02-02T14:54:49.266Z,9.47
2024-02-02T14:57:20.737Z,9.49
2024-02-02T14:59:56.386Z,9.50
2024-02-02T15:02:25.460Z,9.49
2024-02-02T15:04:55.517Z,9.47
2024-02-02T15:07:27.370Z,9.46
2024-02-02T15:09:57.508Z,9.44
2024-02-02T15:12:26.470Z,9.44
2024-02-02T15:14:56.290Z,9.44
2024-02-02T15:17:24.833Z,9.45
2024-02-02T15:19:53.629Z,9.45
2024-02-02T15:22:23.706Z,9.47
2024-02-02T15:24:52.328Z,9.47
2024-02-02T15:27:22.646Z,9.51
2024-02-02T15:29:51.239Z,9.52
2024-02-02T15:32:19.870Z,9.57
2024-02-02T15:34:48.662Z,9.61
2024-02-02T15:37:18.426Z,9.64
2024-02-02T15:39:57.272Z,9.68
2024-02-02T15:42:30.505Z,9.71
2024-02-02T15:45:04.682Z,9.74
2024-02-02T15:47:34.005Z,9.77
2024-02-02T15:50:03.980Z,9.78
2024-02-02T15:52:33.913Z,9.81
2024-02-02T15:55:04.770Z,9.83
2024-02-02T15:57:34.928Z,9.86
2024-02-02T16:00:05.211Z,9.89
2024-02-02T16:02:33.877Z,9.91
2024-02-02T16:05:04.481Z,9.93
2024-02-02T16:07:33.113Z,9.94
2024-02-02T16:10:03.409Z,9.96
2024-02-02T16:12:38.252Z,9.99
2024-02-02T16:15:10.796Z,10.02
2024-02-02T16:17:40.583Z,10.03
2024-02-02T16:20:11.613Z,10.06
2024-02-02T16:22:43.130Z,10.08
2024-02-02T16:25:15.626Z,10.09
2024-02-02T16:27:46.444Z,10.10
2024-02-02T16:30:16.905Z,10.12
2024-02-02T16:32:51.628Z,10.12
2024-02-02T16:35:20.577Z,10.14
2024-02-02T16:37:49.587Z,10.14
2024-02-02T16:40:18.514Z,10.16
2024-02-02T16:42:48.912Z,10.18
2024-02-02T16:45:18.231Z,10.19
2024-02-02T16:47:47.677Z,10.20
2024-02-02T16:50:16.943Z,10.22
2024-02-02T16:52:46.483Z,10.26
2024-02-02T16:55:16.275Z,10.28
2024-02-02T16:57:46.131Z,10.29
2024-02-02T17:00:17.385Z,10.29
2024-02-02T17:02:46.621Z,10.29
2024-02-02T17:05:15.662Z,10.30
2024-02-02T17:07:44.460Z,10.31
2024-02-02T17:10:13.147Z,10.32
2024-02-02T17:12:41.840Z,10.35
2024-02-02T17:15:11.491Z,10.36
2024-02-02T17:17:41.739Z,10.36
2024-02-02T17:20:16.100Z,10.37
2024-02-02T17:22:45.667Z,10.37
2024-02-02T17:25:14.633Z,10.38
2024-02-02T17:27:43.585Z,10.38
2024-02-02T17:30:17.940Z,10.41
2024-02-02T17:32:48.731Z,10.43
2024-02-02T17:35:18.397Z,10.46
2024-02-02T17:37:47.664Z,10.47
2024-02-02T17:40:16.573Z,10.48
2024-02-02T17:42:46.428Z,10.50
2024-02-02T17:45:15.812Z,10.51
2024-02-02T17:47:44.767Z,10.52
2024-02-02T17:50:15.770Z,10.52
2024-02-02T17:52:45.034Z,10.53
2024-02-02T17:55:13.633Z,10.52
2024-02-02T17:57:43.446Z,10.52
2024-02-02T18:00:17.262Z,10.52
2024-02-02T18:02:46.496Z,10.51
2024-02-02T18:05:16.878Z,10.51
2024-02-02T18:07:48.134Z,10.51
2024-02-02T18:10:17.781Z,10.53
2024-02-02T18:12:48.666Z,10.52
2024-02-02T18:15:18.607Z,10.54
2024-02-02T18:17:48.142Z,10.55
2024-02-02T18:20:18.437Z,10.57
2024-02-02T18:22:47.862Z,10.58
2024-02-02T18:25:17.488Z,10.57
2024-02-02T18:27:48.295Z,10.61
2024-02-02T18:30:18.227Z,10.62
2024-02-02T18:32:47.713Z,10.62
2024-02-02T18:35:18.133Z,10.66
2024-02-02T18:37:49.999Z,10.67
2024-02-02T18:40:19.796Z,10.68
2024-02-02T18:42:48.655Z,10.67
2024-02-02T18:45:20.830Z,10.68
2024-02-02T18:47:50.777Z,10.66
2024-02-02T18:50:20.894Z,10.67
2024-02-02T18:52:50.450Z,10.69
2024-02-02T18:55:19.289Z,10.69
2024-02-02T18:57:48.073Z,10.70
2024-02-02T19:00:18.265Z,10.70
2024-02-02T19:02:48.305Z,10.70
2024-02-02T19:05:17.648Z,10.71
2024-02-02T19:07:48.537Z,10.71
2024-02-02T19:10:20.053Z,10.71
2024-02-02T19:12:48.981Z,10.71
2024-02-02T19:15:18.333Z,10.72
2024-02-02T19:17:49.040Z,10.73
2024-02-02T19:20:17.988Z,10.72
2024-02-02T19:22:48.164Z,10.73
2024-02-02T19:25:17.539Z,10.74
2024-02-02T19:27:46.392Z,10.74
2024-02-02T19:30:17.123Z,10.77
2024-02-02T19:32:46.278Z,10.78
2024-02-02T19:35:16.117Z,10.79
2024-02-02T19:37:45.161Z,10.80
2024-02-02T19:40:16.843Z,10.81
2024-02-02T19:42:45.866Z,10.79
2024-02-02T19:45:16.268Z,10.79
2024-02-02T19:47:47.830Z,10.77
2024-02-02T19:50:17.348Z,10.78
2024-02-02T19:52:46.314Z,10.78
2024-02-02T19:55:17.073Z,10.79
2024-02-02T19:57:46.214Z,10.80
2024-02-02T20:00:17.000Z,10.79
2024-02-02T20:02:48.725Z,10.81
2024-02-02T20:05:19.163Z,10.82
2024-02-02T20:07:49.034Z,10.83
2024-02-02T20:10:19.108Z,10.84
2024-02-02T20:12:47.966Z,10.84
2024-02-02T20:15:17.922Z,10.84
2024-02-02T20:17:47.220Z,10.86
2024-02-02T20:20:16.858Z,10.85
2024-02-02T20:22:45.837Z,10.85
2024-02-02T20:25:14.822Z,10.87
2024-02-02T20:27:45.043Z,10.90
2024-02-02T20:30:16.251Z,10.91
2024-02-02T20:32:45.360Z,10.91
2024-02-02T20:35:14.875Z,10.91
2024-02-02T20:37:43.619Z,10.90
2024-02-02T20:40:13.867Z,10.91
2024-02-02T20:42:44.050Z,10.92
2024-02-02T20:45:13.666Z,10.90
2024-02-02T20:47:42.427Z,10.90
2024-02-02T20:50:12.743Z,10.90
2024-02-02T20:52:41.283Z,10.91
2024-02-02T20:55:16.203Z,10.90
2024-02-02T20:57:47.428Z,10.90
2024-02-02T21:00:18.556Z,10.89
2024-02-02T21:02:47.646Z,10.90
2024-02-02T21:05:17.372Z,10.90
2024-02-02T21:07:46.840Z,10.89
2024-02-02T21:10:16.046Z,10.89
2024-02-02T21:12:46.382Z,10.90
2024-02-02T21:15:15.694Z,10.91
2024-02-02T21:17:48.397Z,10.92
2024-02-02T21:20:17.846Z,10.93
2024-02-02T21:22:46.696Z,10.94
2024-02-02T21:25:16.093Z,10.94
2024-02-02T21:27:46.747Z,10.95
2024-02-02T21:30:17.186Z,10.94
2024-02-02T21:32:46.271Z,10.94
2024-02-02T21:35:15.171Z,10.94
2024-02-02T21:37:43.851Z,10.93
2024-02-02T21:40:14.904Z,10.94
2024-02-02T21:42:43.892Z,10.94
2024-02-02T21:45:14.043Z,10.94
2024-02-02T21:47:42.692Z,10.94
2024-02-02T21:50:11.623Z,10.93
2024-02-02T21:52:41.087Z,10.93
2024-02-02T21:55:10.427Z,10.93
2024-02-02T21:57:39.150Z,10.92
2024-02-02T22:00:09.380Z,10.93
2024-02-02T22:02:39.515Z,10.94
2024-02-02T22:05:08.583Z,10.92
2024-02-02T22:07:39.072Z,10.93
2024-02-02T22:10:09.098Z,10.93
2024-02-02T22:12:37.776Z,10.93
2024-02-02T22:15:08.135Z,10.93
2024-02-02T22:17:38.289Z,10.92
2024-02-02T22:20:09.362Z,10.92
2024-02-02T22:22:38.146Z,10.91
2024-02-02T22:25:07.622Z,10.94
2024-02-02T22:27:37.890Z,10.93
2024-02-02T22:30:08.210Z,10.95
2024-02-02T22:32:38.878Z,10.96
2024-02-02T22:35:07.929Z,10.97
2024-02-02T22:37:36.600Z,10.97
2024-02-02T22:40:06.635Z,10.98
2024-02-02T22:42:35.309Z,10.98
2024-02-02T22:45:04.227Z,10.98
2024-02-02T22:47:32.895Z,10.97
2024-02-02T22:50:03.081Z,10.97
2024-02-02T22:52:31.805Z,10.98
2024-02-02T22:55:00.874Z,10.99
2024-02-02T22:57:29.597Z,11.00
2024-02-02T23:00:02.511Z,11.00
2024-02-02T23:02:34.467Z,10.98
2024-02-02T23:05:05.128Z,10.97
2024-02-02T23:07:33.718Z,10.97
2024-02-02T23:10:02.616Z,10.96
2024-02-02T23:12:31.382Z,10.96
2024-02-02T23:15:00.454Z,10.96
2024-02-02T23:17:29.015Z,10.96
2024-02-02T23:19:57.747Z,10.96
2024-02-02T23:22:27.851Z,10.96
2024-02-02T23:24:57.111Z,10.94
2024-02-02T23:27:25.765Z,10.91
2024-02-02T23:29:54.521Z,10.84
2024-02-02T23:32:23.108Z,10.82
2024-02-02T23:34:52.023Z,10.81
2024-02-02T23:37:23.076Z,10.83
2024-02-02T23:39:53.774Z,10.84
2024-02-02T23:42:22.515Z,10.86
2024-02-02T23:44:51.529Z,10.89
2024-02-02T23:47:20.120Z,10.91
2024-02-02T23:49:48.927Z,10.92
2024-02-02T23:52:17.660Z,10.93
2024-02-02T23:54:47.360Z,10.94
2024-02-02T23:57:22.018Z,10.95
2024-02-02T23:59:50.946Z,10.94
